sensor_id;sensor_type;location;lat;lon;timestamp;P1;P2;P0
47705;PMS5003;33471;52.104;1.318;2023-02-10T00:02:00;21;21;
47705;PMS5003;33471;52.104;1.318;2023-02-10T00:04:27;19;19;
47705;PMS5003;33471;52.104;1.318;2023-02-10T00:06:55;27;25;
47705;PMS5003;33471;52.104;1.318;2023-02-10T00:09:22;18;18;
47705;PMS5003;33471;52.104;1.318;2023-02-10T00:11:49;21;19;
47705;PMS5003;33471;52.104;1.318;2023-02-10T00:14:17;23;23;
47705;PMS5003;33471;52.104;1.318;2023-02-10T00:16:48;19;18;
47705;PMS5003;33471;52.104;1.318;2023-02-10T00:19:15;22;22;
47705;PMS5003;33471;52.104;1.318;2023-02-10T00:21:43;20;19;
47705;PMS5003;33471;52.104;1.318;2023-02-10T00:24:11;22;19;
47705;PMS5003;33471;52.104;1.318;2023-02-10T00:26:38;17;17;
47705;PMS5003;33471;52.104;1.318;2023-02-10T00:29:06;24;23;
47705;PMS5003;33471;52.104;1.318;2023-02-10T00:31:33;27;22;
47705;PMS5003;33471;52.104;1.318;2023-02-10T00:34:00;17;16;
47705;PMS5003;33471;52.104;1.318;2023-02-10T00:36:27;14;14;
47705;PMS5003;33471;52.104;1.318;2023-02-10T00:38:54;20;18;
47705;PMS5003;33471;52.104;1.318;2023-02-10T00:41:22;18;18;
47705;PMS5003;33471;52.104;1.318;2023-02-10T00:43:50;20;19;
47705;PMS5003;33471;52.104;1.318;2023-02-10T00:46:19;19;18;
47705;PMS5003;33471;52.104;1.318;2023-02-10T00:48:48;21;20;
47705;PMS5003;33471;52.104;1.318;2023-02-10T00:51:16;23;22;
47705;PMS5003;33471;52.104;1.318;2023-02-10T00:53:45;22;22;
47705;PMS5003;33471;52.104;1.318;2023-02-10T00:56:13;14;14;
47705;PMS5003;33471;52.104;1.318;2023-02-10T00:58:40;16;14;
47705;PMS5003;33471;52.104;1.318;2023-02-10T01:01:07;18;16;
47705;PMS5003;33471;52.104;1.318;2023-02-10T01:03:34;20;19;
47705;PMS5003;33471;52.104;1.318;2023-02-10T01:06:02;16;15;
47705;PMS5003;33471;52.104;1.318;2023-02-10T01:08:30;14;12;
47705;PMS5003;33471;52.104;1.318;2023-02-10T01:10:59;14;12;
47705;PMS5003;33471;52.104;1.318;2023-02-10T01:13:27;16;16;
47705;PMS5003;33471;52.104;1.318;2023-02-10T01:15:55;14;14;
47705;PMS5003;33471;52.104;1.318;2023-02-10T01:18:22;17;17;
47705;PMS5003;33471;52.104;1.318;2023-02-10T01:20:50;14;12;
47705;PMS5003;33471;52.104;1.318;2023-02-10T01:23:18;13;13;
47705;PMS5003;33471;52.104;1.318;2023-02-10T01:25:45;21;21;
47705;PMS5003;33471;52.104;1.318;2023-02-10T01:28:12;14;14;
47705;PMS5003;33471;52.104;1.318;2023-02-10T01:30:40;14;14;
47705;PMS5003;33471;52.104;1.318;2023-02-10T01:33:07;12;10;
47705;PMS5003;33471;52.104;1.318;2023-02-10T01:35:37;14;13;
47705;PMS5003;33471;52.104;1.318;2023-02-10T01:38:04;13;13;
47705;PMS5003;33471;52.104;1.318;2023-02-10T01:40:31;15;15;
47705;PMS5003;33471;52.104;1.318;2023-02-10T01:42:58;24;22;
47705;PMS5003;33471;52.104;1.318;2023-02-10T01:45:26;20;16;
47705;PMS5003;33471;52.104;1.318;2023-02-10T01:47:57;17;16;
47705;PMS5003;33471;52.104;1.318;2023-02-10T01:50:27;15;15;
47705;PMS5003;33471;52.104;1.318;2023-02-10T01:52:57;20;19;
47705;PMS5003;33471;52.104;1.318;2023-02-10T01:55:26;16;14;
47705;PMS5003;33471;52.104;1.318;2023-02-10T01:57:57;19;17;
47705;PMS5003;33471;52.104;1.318;2023-02-10T02:00:25;12;12;
47705;PMS5003;33471;52.104;1.318;2023-02-10T02:02:52;17;17;
47705;PMS5003;33471;52.104;1.318;2023-02-10T02:05:21;26;20;
47705;PMS5003;33471;52.104;1.318;2023-02-10T02:07:57;12;12;
47705;PMS5003;33471;52.104;1.318;2023-02-10T02:10:31;20;18;
47705;PMS5003;33471;52.104;1.318;2023-02-10T02:13:09;27;20;
47705;PMS5003;33471;52.104;1.318;2023-02-10T02:15:44;23;22;
47705;PMS5003;33471;52.104;1.318;2023-02-10T02:18:19;15;14;
47705;PMS5003;33471;52.104;1.318;2023-02-10T02:21:49;14;13;
47705;PMS5003;33471;52.104;1.318;2023-02-10T02:24:41;14;14;
47705;PMS5003;33471;52.104;1.318;2023-02-10T02:27:42;14;13;
47705;PMS5003;33471;52.104;1.318;2023-02-10T02:30:27;16;16;
47705;PMS5003;33471;52.104;1.318;2023-02-10T02:31:08;17;17;
47705;PMS5003;33471;52.104;1.318;2023-02-10T02:33:55;14;12;
47705;PMS5003;33471;52.104;1.318;2023-02-10T02:36:29;14;14;
47705;PMS5003;33471;52.104;1.318;2023-02-10T02:39:02;12;11;
47705;PMS5003;33471;52.104;1.318;2023-02-10T02:41:32;14;12;
47705;PMS5003;33471;52.104;1.318;2023-02-10T02:44:01;21;20;
47705;PMS5003;33471;52.104;1.318;2023-02-10T02:46:33;22;18;
47705;PMS5003;33471;52.104;1.318;2023-02-10T02:49:13;11;11;
47705;PMS5003;33471;52.104;1.318;2023-02-10T02:51:48;16;15;
47705;PMS5003;33471;52.104;1.318;2023-02-10T02:54:24;18;18;
47705;PMS5003;33471;52.104;1.318;2023-02-10T02:56:57;14;14;
47705;PMS5003;33471;52.104;1.318;2023-02-10T02:59:34;15;15;
47705;PMS5003;33471;52.104;1.318;2023-02-10T03:02:08;18;18;
47705;PMS5003;33471;52.104;1.318;2023-02-10T03:04:37;13;12;
47705;PMS5003;33471;52.104;1.318;2023-02-10T03:07:06;15;14;
47705;PMS5003;33471;52.104;1.318;2023-02-10T03:09:33;14;14;
47705;PMS5003;33471;52.104;1.318;2023-02-10T03:12:02;14;14;
47705;PMS5003;33471;52.104;1.318;2023-02-10T03:14:29;13;11;
47705;PMS5003;33471;52.104;1.318;2023-02-10T03:16:56;11;10;
47705;PMS5003;33471;52.104;1.318;2023-02-10T03:19:24;19;19;
47705;PMS5003;33471;52.104;1.318;2023-02-10T03:21:51;14;14;
47705;PMS5003;33471;52.104;1.318;2023-02-10T03:24:18;18;13;
47705;PMS5003;33471;52.104;1.318;2023-02-10T03:26:46;19;18;
47705;PMS5003;33471;52.104;1.318;2023-02-10T03:29:14;18;15;
47705;PMS5003;33471;52.104;1.318;2023-02-10T03:31:42;18;17;
47705;PMS5003;33471;52.104;1.318;2023-02-10T03:34:10;16;16;
47705;PMS5003;33471;52.104;1.318;2023-02-10T03:36:38;13;12;
47705;PMS5003;33471;52.104;1.318;2023-02-10T03:39:05;20;20;
47705;PMS5003;33471;52.104;1.318;2023-02-10T03:41:33;15;13;
47705;PMS5003;33471;52.104;1.318;2023-02-10T03:44:00;15;13;
47705;PMS5003;33471;52.104;1.318;2023-02-10T03:46:26;19;13;
47705;PMS5003;33471;52.104;1.318;2023-02-10T03:48:54;11;9;
47705;PMS5003;33471;52.104;1.318;2023-02-10T03:51:21;15;15;
47705;PMS5003;33471;52.104;1.318;2023-02-10T03:53:48;11;11;
47705;PMS5003;33471;52.104;1.318;2023-02-10T03:56:15;14;14;
47705;PMS5003;33471;52.104;1.318;2023-02-10T03:58:42;18;18;
47705;PMS5003;33471;52.104;1.318;2023-02-10T04:01:10;15;12;
47705;PMS5003;33471;52.104;1.318;2023-02-10T04:03:39;10;10;
47705;PMS5003;33471;52.104;1.318;2023-02-10T04:06:06;12;11;
47705;PMS5003;33471;52.104;1.318;2023-02-10T04:08:35;15;14;
47705;PMS5003;33471;52.104;1.318;2023-02-10T04:11:03;12;12;
47705;PMS5003;33471;52.104;1.318;2023-02-10T04:13:31;17;16;
47705;PMS5003;33471;52.104;1.318;2023-02-10T04:16:00;13;12;
47705;PMS5003;33471;52.104;1.318;2023-02-10T04:18:28;17;17;
47705;PMS5003;33471;52.104;1.318;2023-02-10T04:20:57;16;13;
47705;PMS5003;33471;52.104;1.318;2023-02-10T04:23:24;14;13;
47705;PMS5003;33471;52.104;1.318;2023-02-10T04:25:52;12;12;
47705;PMS5003;33471;52.104;1.318;2023-02-10T04:28:19;13;11;
47705;PMS5003;33471;52.104;1.318;2023-02-10T04:30:50;13;13;
47705;PMS5003;33471;52.104;1.318;2023-02-10T04:33:18;15;15;
47705;PMS5003;33471;52.104;1.318;2023-02-10T04:35:46;12;11;
47705;PMS5003;33471;52.104;1.318;2023-02-10T04:38:13;14;14;
47705;PMS5003;33471;52.104;1.318;2023-02-10T04:40:42;11;11;
47705;PMS5003;33471;52.104;1.318;2023-02-10T04:43:10;11;11;
47705;PMS5003;33471;52.104;1.318;2023-02-10T04:45:38;17;17;
47705;PMS5003;33471;52.104;1.318;2023-02-10T04:48:05;13;12;
47705;PMS5003;33471;52.104;1.318;2023-02-10T04:50:35;21;20;
47705;PMS5003;33471;52.104;1.318;2023-02-10T04:53:03;19;18;
47705;PMS5003;33471;52.104;1.318;2023-02-10T04:55:31;14;14;
47705;PMS5003;33471;52.104;1.318;2023-02-10T04:57:59;15;15;
47705;PMS5003;33471;52.104;1.318;2023-02-10T05:00:27;23;19;
47705;PMS5003;33471;52.104;1.318;2023-02-10T05:02:55;12;11;
47705;PMS5003;33471;52.104;1.318;2023-02-10T05:05:22;12;12;
47705;PMS5003;33471;52.104;1.318;2023-02-10T05:07:50;18;17;
47705;PMS5003;33471;52.104;1.318;2023-02-10T05:10:17;14;12;
47705;PMS5003;33471;52.104;1.318;2023-02-10T05:12:45;13;13;
47705;PMS5003;33471;52.104;1.318;2023-02-10T05:15:12;18;15;
47705;PMS5003;33471;52.104;1.318;2023-02-10T05:17:39;17;13;
47705;PMS5003;33471;52.104;1.318;2023-02-10T05:20:07;15;13;
47705;PMS5003;33471;52.104;1.318;2023-02-10T05:22:36;13;13;
47705;PMS5003;33471;52.104;1.318;2023-02-10T05:25:03;15;14;
47705;PMS5003;33471;52.104;1.318;2023-02-10T05:27:31;18;16;
47705;PMS5003;33471;52.104;1.318;2023-02-10T05:29:58;14;14;
47705;PMS5003;33471;52.104;1.318;2023-02-10T05:32:25;17;17;
47705;PMS5003;33471;52.104;1.318;2023-02-10T05:34:53;14;12;
47705;PMS5003;33471;52.104;1.318;2023-02-10T05:37:19;16;16;
47705;PMS5003;33471;52.104;1.318;2023-02-10T05:39:47;23;22;
47705;PMS5003;33471;52.104;1.318;2023-02-10T05:42:14;20;18;
47705;PMS5003;33471;52.104;1.318;2023-02-10T05:44:41;22;19;
47705;PMS5003;33471;52.104;1.318;2023-02-10T05:47:09;20;18;
47705;PMS5003;33471;52.104;1.318;2023-02-10T05:49:37;28;27;
47705;PMS5003;33471;52.104;1.318;2023-02-10T05:52:04;54;52;
47705;PMS5003;33471;52.104;1.318;2023-02-10T05:54:31;74;70;
47705;PMS5003;33471;52.104;1.318;2023-02-10T05:56:58;65;62;
47705;PMS5003;33471;52.104;1.318;2023-02-10T05:59:25;65;64;
47705;PMS5003;33471;52.104;1.318;2023-02-10T06:01:53;58;56;
47705;PMS5003;33471;52.104;1.318;2023-02-10T06:04:20;75;71;
47705;PMS5003;33471;52.104;1.318;2023-02-10T06:06:48;49;47;
47705;PMS5003;33471;52.104;1.318;2023-02-10T06:09:15;23;22;
47705;PMS5003;33471;52.104;1.318;2023-02-10T06:11:42;20;18;
47705;PMS5003;33471;52.104;1.318;2023-02-10T06:14:09;22;21;
47705;PMS5003;33471;52.104;1.318;2023-02-10T06:16:36;32;31;
47705;PMS5003;33471;52.104;1.318;2023-02-10T06:19:04;24;24;
47705;PMS5003;33471;52.104;1.318;2023-02-10T06:21:31;27;26;
47705;PMS5003;33471;52.104;1.318;2023-02-10T06:23:59;30;27;
47705;PMS5003;33471;52.104;1.318;2023-02-10T06:26:26;21;21;
47705;PMS5003;33471;52.104;1.318;2023-02-10T06:28:53;49;48;
47705;PMS5003;33471;52.104;1.318;2023-02-10T06:31:21;37;35;
47705;PMS5003;33471;52.104;1.318;2023-02-10T06:33:48;24;21;
47705;PMS5003;33471;52.104;1.318;2023-02-10T06:36:15;32;32;
47705;PMS5003;33471;52.104;1.318;2023-02-10T06:38:42;28;27;
47705;PMS5003;33471;52.104;1.318;2023-02-10T06:41:10;27;27;
47705;PMS5003;33471;52.104;1.318;2023-02-10T06:43:37;19;19;
47705;PMS5003;33471;52.104;1.318;2023-02-10T06:46:04;20;19;
47705;PMS5003;33471;52.104;1.318;2023-02-10T06:48:32;24;23;
47705;PMS5003;33471;52.104;1.318;2023-02-10T06:50:59;20;19;
47705;PMS5003;33471;52.104;1.318;2023-02-10T06:53:26;21;21;
47705;PMS5003;33471;52.104;1.318;2023-02-10T06:55:55;15;14;
47705;PMS5003;33471;52.104;1.318;2023-02-10T06:58:22;18;16;
47705;PMS5003;33471;52.104;1.318;2023-02-10T07:00:49;25;23;
47705;PMS5003;33471;52.104;1.318;2023-02-10T07:03:17;22;22;
47705;PMS5003;33471;52.104;1.318;2023-02-10T07:05:44;19;16;
47705;PMS5003;33471;52.104;1.318;2023-02-10T07:08:11;15;15;
47705;PMS5003;33471;52.104;1.318;2023-02-10T07:10:39;29;28;
47705;PMS5003;33471;52.104;1.318;2023-02-10T07:13:06;28;28;
47705;PMS5003;33471;52.104;1.318;2023-02-10T07:15:34;22;22;
47705;PMS5003;33471;52.104;1.318;2023-02-10T07:18:01;21;21;
47705;PMS5003;33471;52.104;1.318;2023-02-10T07:20:28;19;18;
47705;PMS5003;33471;52.104;1.318;2023-02-10T07:22:55;16;15;
47705;PMS5003;33471;52.104;1.318;2023-02-10T07:25:22;18;18;
47705;PMS5003;33471;52.104;1.318;2023-02-10T07:27:50;15;15;
47705;PMS5003;33471;52.104;1.318;2023-02-10T07:30:17;18;18;
47705;PMS5003;33471;52.104;1.318;2023-02-10T07:32:44;14;13;
47705;PMS5003;33471;52.104;1.318;2023-02-10T07:35:11;17;17;
47705;PMS5003;33471;52.104;1.318;2023-02-10T07:37:39;14;14;
47705;PMS5003;33471;52.104;1.318;2023-02-10T07:40:08;17;14;
47705;PMS5003;33471;52.104;1.318;2023-02-10T07:42:35;20;18;
47705;PMS5003;33471;52.104;1.318;2023-02-10T07:45:03;17;17;
47705;PMS5003;33471;52.104;1.318;2023-02-10T07:47:31;22;21;
47705;PMS5003;33471;52.104;1.318;2023-02-10T07:49:58;20;20;
47705;PMS5003;33471;52.104;1.318;2023-02-10T07:52:25;22;22;
47705;PMS5003;33471;52.104;1.318;2023-02-10T07:54:52;19;16;
47705;PMS5003;33471;52.104;1.318;2023-02-10T07:57:20;25;24;
47705;PMS5003;33471;52.104;1.318;2023-02-10T07:59:47;20;19;
47705;PMS5003;33471;52.104;1.318;2023-02-10T08:02:15;16;15;
47705;PMS5003;33471;52.104;1.318;2023-02-10T08:04:43;23;20;
47705;PMS5003;33471;52.104;1.318;2023-02-10T08:07:11;24;22;
47705;PMS5003;33471;52.104;1.318;2023-02-10T08:09:38;23;22;
47705;PMS5003;33471;52.104;1.318;2023-02-10T08:12:05;26;24;
47705;PMS5003;33471;52.104;1.318;2023-02-10T08:14:33;23;23;
47705;PMS5003;33471;52.104;1.318;2023-02-10T08:17:00;24;23;
47705;PMS5003;33471;52.104;1.318;2023-02-10T08:19:27;24;24;
47705;PMS5003;33471;52.104;1.318;2023-02-10T08:21:54;25;24;
47705;PMS5003;33471;52.104;1.318;2023-02-10T08:24:21;29;29;
47705;PMS5003;33471;52.104;1.318;2023-02-10T08:26:48;33;32;
47705;PMS5003;33471;52.104;1.318;2023-02-10T08:29:15;30;28;
47705;PMS5003;33471;52.104;1.318;2023-02-10T08:31:42;31;30;
47705;PMS5003;33471;52.104;1.318;2023-02-10T08:34:13;31;30;
47705;PMS5003;33471;52.104;1.318;2023-02-10T08:36:42;32;29;
47705;PMS5003;33471;52.104;1.318;2023-02-10T08:39:09;34;34;
47705;PMS5003;33471;52.104;1.318;2023-02-10T08:41:37;35;29;
47705;PMS5003;33471;52.104;1.318;2023-02-10T08:44:05;42;40;
47705;PMS5003;33471;52.104;1.318;2023-02-10T08:46:33;34;31;
47705;PMS5003;33471;52.104;1.318;2023-02-10T08:49:01;53;49;
47705;PMS5003;33471;52.104;1.318;2023-02-10T08:51:28;43;42;
47705;PMS5003;33471;52.104;1.318;2023-02-10T08:53:56;41;39;
47705;PMS5003;33471;52.104;1.318;2023-02-10T08:56:23;50;47;
47705;PMS5003;33471;52.104;1.318;2023-02-10T08:58:50;47;44;
47705;PMS5003;33471;52.104;1.318;2023-02-10T09:01:18;36;36;
47705;PMS5003;33471;52.104;1.318;2023-02-10T09:03:48;37;36;
47705;PMS5003;33471;52.104;1.318;2023-02-10T09:06:15;46;44;
47705;PMS5003;33471;52.104;1.318;2023-02-10T09:08:45;46;39;
47705;PMS5003;33471;52.104;1.318;2023-02-10T09:11:13;42;39;
47705;PMS5003;33471;52.104;1.318;2023-02-10T09:13:41;32;31;
47705;PMS5003;33471;52.104;1.318;2023-02-10T09:16:08;42;40;
47705;PMS5003;33471;52.104;1.318;2023-02-10T09:18:36;35;35;
47705;PMS5003;33471;52.104;1.318;2023-02-10T09:21:04;35;35;
47705;PMS5003;33471;52.104;1.318;2023-02-10T09:23:31;35;33;
47705;PMS5003;33471;52.104;1.318;2023-02-10T09:25:59;33;33;
47705;PMS5003;33471;52.104;1.318;2023-02-10T09:28:27;30;27;
47705;PMS5003;33471;52.104;1.318;2023-02-10T09:30:55;32;27;
47705;PMS5003;33471;52.104;1.318;2023-02-10T09:33:22;31;27;
47705;PMS5003;33471;52.104;1.318;2023-02-10T09:35:49;22;21;
47705;PMS5003;33471;52.104;1.318;2023-02-10T09:38:17;28;26;
47705;PMS5003;33471;52.104;1.318;2023-02-10T09:40:47;19;19;
47705;PMS5003;33471;52.104;1.318;2023-02-10T09:43:26;25;23;
47705;PMS5003;33471;52.104;1.318;2023-02-10T09:46:12;22;22;
47705;PMS5003;33471;52.104;1.318;2023-02-10T09:48:56;21;20;
47705;PMS5003;33471;52.104;1.318;2023-02-10T09:51:39;29;28;
47705;PMS5003;33471;52.104;1.318;2023-02-10T09:54:14;28;28;
47705;PMS5003;33471;52.104;1.318;2023-02-10T09:56:42;22;20;
47705;PMS5003;33471;52.104;1.318;2023-02-10T09:59:12;24;24;
47705;PMS5003;33471;52.104;1.318;2023-02-10T10:01:45;21;18;
47705;PMS5003;33471;52.104;1.318;2023-02-10T10:04:17;21;20;
47705;PMS5003;33471;52.104;1.318;2023-02-10T10:06:48;24;21;
47705;PMS5003;33471;52.104;1.318;2023-02-10T10:09:21;18;18;
47705;PMS5003;33471;52.104;1.318;2023-02-10T10:11:57;23;23;
47705;PMS5003;33471;52.104;1.318;2023-02-10T10:14:26;14;14;
47705;PMS5003;33471;52.104;1.318;2023-02-10T10:17:01;18;18;
47705;PMS5003;33471;52.104;1.318;2023-02-10T10:19:41;16;15;
47705;PMS5003;33471;52.104;1.318;2023-02-10T10:22:22;23;22;
47705;PMS5003;33471;52.104;1.318;2023-02-10T10:25:14;15;15;
47705;PMS5003;33471;52.104;1.318;2023-02-10T10:27:55;11;11;
47705;PMS5003;33471;52.104;1.318;2023-02-10T10:30:31;13;13;
47705;PMS5003;33471;52.104;1.318;2023-02-10T10:33:10;12;11;
47705;PMS5003;33471;52.104;1.318;2023-02-10T10:35:47;10;9;
47705;PMS5003;33471;52.104;1.318;2023-02-10T10:38:16;18;18;
47705;PMS5003;33471;52.104;1.318;2023-02-10T10:40:47;12;11;
47705;PMS5003;33471;52.104;1.318;2023-02-10T10:43:19;10;10;
47705;PMS5003;33471;52.104;1.318;2023-02-10T10:45:51;14;14;
47705;PMS5003;33471;52.104;1.318;2023-02-10T10:48:23;7;7;
47705;PMS5003;33471;52.104;1.318;2023-02-10T10:50:52;10;9;
47705;PMS5003;33471;52.104;1.318;2023-02-10T10:53:27;7;7;
47705;PMS5003;33471;52.104;1.318;2023-02-10T10:56:04;9;9;
47705;PMS5003;33471;52.104;1.318;2023-02-10T10:58:35;9;9;
47705;PMS5003;33471;52.104;1.318;2023-02-10T11:01:05;7;6;
47705;PMS5003;33471;52.104;1.318;2023-02-10T11:03:32;14;13;
47705;PMS5003;33471;52.104;1.318;2023-02-10T11:06:02;8;6;
47705;PMS5003;33471;52.104;1.318;2023-02-10T11:08:33;7;7;
47705;PMS5003;33471;52.104;1.318;2023-02-10T11:11:02;8;8;
47705;PMS5003;33471;52.104;1.318;2023-02-10T11:13:31;7;5;
47705;PMS5003;33471;52.104;1.318;2023-02-10T11:16:01;4;4;
47705;PMS5003;33471;52.104;1.318;2023-02-10T11:18:30;8;6;
47705;PMS5003;33471;52.104;1.318;2023-02-10T11:20:59;15;15;
47705;PMS5003;33471;52.104;1.318;2023-02-10T11:23:28;6;6;
47705;PMS5003;33471;52.104;1.318;2023-02-10T11:25:57;9;8;
47705;PMS5003;33471;52.104;1.318;2023-02-10T11:28:27;6;6;
47705;PMS5003;33471;52.104;1.318;2023-02-10T11:30:55;13;13;
47705;PMS5003;33471;52.104;1.318;2023-02-10T11:33:27;9;8;
47705;PMS5003;33471;52.104;1.318;2023-02-10T11:35:58;6;6;
47705;PMS5003;33471;52.104;1.318;2023-02-10T11:38:30;7;7;
47705;PMS5003;33471;52.104;1.318;2023-02-10T11:41:00;5;5;
47705;PMS5003;33471;52.104;1.318;2023-02-10T11:43:30;6;5;
47705;PMS5003;33471;52.104;1.318;2023-02-10T11:46:02;7;7;
47705;PMS5003;33471;52.104;1.318;2023-02-10T11:48:31;8;8;
47705;PMS5003;33471;52.104;1.318;2023-02-10T11:51:00;4;4;
47705;PMS5003;33471;52.104;1.318;2023-02-10T11:53:31;9;6;
47705;PMS5003;33471;52.104;1.318;2023-02-10T11:56:01;16;16;
47705;PMS5003;33471;52.104;1.318;2023-02-10T11:58:37;21;20;
47705;PMS5003;33471;52.104;1.318;2023-02-10T12:01:33;28;28;
47705;PMS5003;33471;52.104;1.318;2023-02-10T12:04:15;8;7;
47705;PMS5003;33471;52.104;1.318;2023-02-10T12:06:54;4;4;
47705;PMS5003;33471;52.104;1.318;2023-02-10T12:09:31;7;6;
47705;PMS5003;33471;52.104;1.318;2023-02-10T12:12:04;6;4;
47705;PMS5003;33471;52.104;1.318;2023-02-10T12:14:42;16;16;
47705;PMS5003;33471;52.104;1.318;2023-02-10T12:17:24;10;7;
47705;PMS5003;33471;52.104;1.318;2023-02-10T12:19:59;16;14;
47705;PMS5003;33471;52.104;1.318;2023-02-10T12:22:44;6;6;
47705;PMS5003;33471;52.104;1.318;2023-02-10T12:25:25;13;13;
47705;PMS5003;33471;52.104;1.318;2023-02-10T12:28:01;11;9;
47705;PMS5003;33471;52.104;1.318;2023-02-10T12:30:38;9;7;
47705;PMS5003;33471;52.104;1.318;2023-02-10T12:33:19;7;7;
47705;PMS5003;33471;52.104;1.318;2023-02-10T12:36:05;7;7;
47705;PMS5003;33471;52.104;1.318;2023-02-10T12:38:46;14;13;
47705;PMS5003;33471;52.104;1.318;2023-02-10T12:41:23;8;7;
47705;PMS5003;33471;52.104;1.318;2023-02-10T12:44:07;15;13;
47705;PMS5003;33471;52.104;1.318;2023-02-10T12:46:43;9;8;
47705;PMS5003;33471;52.104;1.318;2023-02-10T12:49:23;7;5;
47705;PMS5003;33471;52.104;1.318;2023-02-10T12:52:02;6;6;
47705;PMS5003;33471;52.104;1.318;2023-02-10T12:54:37;9;7;
47705;PMS5003;33471;52.104;1.318;2023-02-10T12:57:11;15;15;
47705;PMS5003;33471;52.104;1.318;2023-02-10T12:59:47;12;12;
47705;PMS5003;33471;52.104;1.318;2023-02-10T13:02:20;6;6;
47705;PMS5003;33471;52.104;1.318;2023-02-10T13:04:54;10;8;
47705;PMS5003;33471;52.104;1.318;2023-02-10T13:07:26;4;4;
47705;PMS5003;33471;52.104;1.318;2023-02-10T13:10:06;10;10;
47705;PMS5003;33471;52.104;1.318;2023-02-10T13:12:44;7;6;
47705;PMS5003;33471;52.104;1.318;2023-02-10T13:15:16;7;7;
47705;PMS5003;33471;52.104;1.318;2023-02-10T13:17:48;6;6;
47705;PMS5003;33471;52.104;1.318;2023-02-10T13:20:22;9;8;
47705;PMS5003;33471;52.104;1.318;2023-02-10T13:22:56;6;6;
47705;PMS5003;33471;52.104;1.318;2023-02-10T13:25:34;8;8;
47705;PMS5003;33471;52.104;1.318;2023-02-10T13:28:17;5;5;
47705;PMS5003;33471;52.104;1.318;2023-02-10T13:31:00;7;6;
47705;PMS5003;33471;52.104;1.318;2023-02-10T13:33:44;9;8;
47705;PMS5003;33471;52.104;1.318;2023-02-10T13:36:18;7;5;
47705;PMS5003;33471;52.104;1.318;2023-02-10T13:38:50;6;5;
47705;PMS5003;33471;52.104;1.318;2023-02-10T13:41:26;5;5;
47705;PMS5003;33471;52.104;1.318;2023-02-10T13:43:58;6;4;
47705;PMS5003;33471;52.104;1.318;2023-02-10T13:46:26;7;7;
47705;PMS5003;33471;52.104;1.318;2023-02-10T13:48:57;4;4;
47705;PMS5003;33471;52.104;1.318;2023-02-10T13:51:28;9;6;
47705;PMS5003;33471;52.104;1.318;2023-02-10T13:53:58;10;8;
47705;PMS5003;33471;52.104;1.318;2023-02-10T13:56:26;4;4;
47705;PMS5003;33471;52.104;1.318;2023-02-10T13:58:55;8;7;
47705;PMS5003;33471;52.104;1.318;2023-02-10T14:01:33;7;7;
47705;PMS5003;33471;52.104;1.318;2023-02-10T14:04:03;10;10;
47705;PMS5003;33471;52.104;1.318;2023-02-10T14:06:35;5;5;
47705;PMS5003;33471;52.104;1.318;2023-02-10T14:09:05;4;4;
47705;PMS5003;33471;52.104;1.318;2023-02-10T14:11:44;13;11;
47705;PMS5003;33471;52.104;1.318;2023-02-10T14:14:17;4;4;
47705;PMS5003;33471;52.104;1.318;2023-02-10T14:16:46;5;4;
47705;PMS5003;33471;52.104;1.318;2023-02-10T14:19:20;3;3;
47705;PMS5003;33471;52.104;1.318;2023-02-10T14:21:49;11;10;
47705;PMS5003;33471;52.104;1.318;2023-02-10T14:24:23;6;5;
47705;PMS5003;33471;52.104;1.318;2023-02-10T14:26:53;7;7;
47705;PMS5003;33471;52.104;1.318;2023-02-10T14:29:25;7;7;
47705;PMS5003;33471;52.104;1.318;2023-02-10T14:31:55;8;8;
47705;PMS5003;33471;52.104;1.318;2023-02-10T14:34:25;7;6;
47705;PMS5003;33471;52.104;1.318;2023-02-10T14:36:53;3;3;
47705;PMS5003;33471;52.104;1.318;2023-02-10T14:39:23;5;5;
47705;PMS5003;33471;52.104;1.318;2023-02-10T14:41:51;6;4;
47705;PMS5003;33471;52.104;1.318;2023-02-10T14:44:23;12;12;
47705;PMS5003;33471;52.104;1.318;2023-02-10T14:46:55;13;12;
47705;PMS5003;33471;52.104;1.318;2023-02-10T14:49:22;10;10;
47705;PMS5003;33471;52.104;1.318;2023-02-10T14:51:55;6;6;
47705;PMS5003;33471;52.104;1.318;2023-02-10T14:54:23;5;5;
47705;PMS5003;33471;52.104;1.318;2023-02-10T14:56:53;9;9;
47705;PMS5003;33471;52.104;1.318;2023-02-10T14:59:22;7;7;
47705;PMS5003;33471;52.104;1.318;2023-02-10T15:01:51;9;8;
47705;PMS5003;33471;52.104;1.318;2023-02-10T15:04:20;6;6;
47705;PMS5003;33471;52.104;1.318;2023-02-10T15:06:49;8;7;
47705;PMS5003;33471;52.104;1.318;2023-02-10T15:09:19;6;6;
47705;PMS5003;33471;52.104;1.318;2023-02-10T15:11:50;7;6;
47705;PMS5003;33471;52.104;1.318;2023-02-10T15:14:21;10;10;
47705;PMS5003;33471;52.104;1.318;2023-02-10T15:16:51;9;7;
47705;PMS5003;33471;52.104;1.318;2023-02-10T15:19:23;14;14;
47705;PMS5003;33471;52.104;1.318;2023-02-10T15:21:50;5;5;
47705;PMS5003;33471;52.104;1.318;2023-02-10T15:24:19;7;6;
47705;PMS5003;33471;52.104;1.318;2023-02-10T15:26:49;5;5;
47705;PMS5003;33471;52.104;1.318;2023-02-10T15:29:16;7;7;
47705;PMS5003;33471;52.104;1.318;2023-02-10T15:31:51;7;7;
47705;PMS5003;33471;52.104;1.318;2023-02-10T15:34:22;15;13;
47705;PMS5003;33471;52.104;1.318;2023-02-10T15:36:54;5;5;
47705;PMS5003;33471;52.104;1.318;2023-02-10T15:39:24;6;6;
47705;PMS5003;33471;52.104;1.318;2023-02-10T15:41:58;8;8;
47705;PMS5003;33471;52.104;1.318;2023-02-10T15:44:31;15;14;
47705;PMS5003;33471;52.104;1.318;2023-02-10T15:47:41;12;12;
47705;PMS5003;33471;52.104;1.318;2023-02-10T15:50:12;6;6;
47705;PMS5003;33471;52.104;1.318;2023-02-10T15:52:41;10;9;
47705;PMS5003;33471;52.104;1.318;2023-02-10T15:55:14;20;19;
47705;PMS5003;33471;52.104;1.318;2023-02-10T15:57:44;18;18;
47705;PMS5003;33471;52.104;1.318;2023-02-10T16:00:16;19;18;
47705;PMS5003;33471;52.104;1.318;2023-02-10T16:02:45;30;28;
47705;PMS5003;33471;52.104;1.318;2023-02-10T16:05:13;12;10;
47705;PMS5003;33471;52.104;1.318;2023-02-10T16:07:40;23;23;
47705;PMS5003;33471;52.104;1.318;2023-02-10T16:10:11;16;15;
47705;PMS5003;33471;52.104;1.318;2023-02-10T16:12:42;14;12;
47705;PMS5003;33471;52.104;1.318;2023-02-10T16:15:12;22;20;
47705;PMS5003;33471;52.104;1.318;2023-02-10T16:17:41;9;9;
47705;PMS5003;33471;52.104;1.318;2023-02-10T16:20:15;10;8;
47705;PMS5003;33471;52.104;1.318;2023-02-10T16:22:45;10;9;
47705;PMS5003;33471;52.104;1.318;2023-02-10T16:25:14;16;16;
47705;PMS5003;33471;52.104;1.318;2023-02-10T16:27:42;17;13;
47705;PMS5003;33471;52.104;1.318;2023-02-10T16:30:14;8;8;
47705;PMS5003;33471;52.104;1.318;2023-02-10T16:32:42;11;10;
47705;PMS5003;33471;52.104;1.318;2023-02-10T16:35:10;9;9;
47705;PMS5003;33471;52.104;1.318;2023-02-10T16:37:38;11;9;
47705;PMS5003;33471;52.104;1.318;2023-02-10T16:40:06;10;10;
47705;PMS5003;33471;52.104;1.318;2023-02-10T16:42:40;10;9;
47705;PMS5003;33471;52.104;1.318;2023-02-10T16:45:07;10;8;
47705;PMS5003;33471;52.104;1.318;2023-02-10T16:47:35;10;10;